Time;durP1;ratioP1;P1;durP2;ratioP2;P2;SDS_P1;SDS_P2;PMS_P1;PMS_P2;Temp;Humidity;BMP_temperature;BMP_pressure;BME280_temperature;BME280_humidity;BME280_pressure;Samples;Min_cycle;Max_cycle;Signal;HPM_P1;HPM_P2
2022/01/07 00:01:06;;;;;;;18.35;4.82;;;;;;;1.38;99.09;101334.06;5054755;28;20037;-79
2022/01/07 00:03:32;;;;;;;13.80;4.22;;;;;;;1.41;98.88;101333.94;5054513;28;20064;-78
2022/01/07 00:06:01;;;;;;;13.02;4.40;;;;;;;1.44;98.93;101332.94;5054365;28;20052;-78
2022/01/07 00:08:28;;;;;;;19.35;4.70;;;;;;;1.44;99.04;101334.72;5054414;28;20055;-79
2022/01/07 00:10:53;;;;;;;11.38;4.32;;;;;;;1.45;98.97;101324.16;5052453;28;20393;-78
2022/01/07 00:13:19;;;;;;;14.52;5.40;;;;;;;1.45;99.17;101323.28;5052007;28;20028;-79
2022/01/07 00:15:45;;;;;;;8.43;4.15;;;;;;;1.46;99.13;101320.59;5053013;28;20400;-79
2022/01/07 00:18:10;;;;;;;19.90;4.70;;;;;;;1.45;99.30;101324.16;5053214;28;20033;-80
2022/01/07 00:20:37;;;;;;;13.32;4.55;;;;;;;1.45;99.53;101326.78;5052900;28;20035;-80
2022/01/07 00:23:03;;;;;;;19.90;4.78;;;;;;;1.49;99.17;101309.97;5052657;28;20039;-79
2022/01/07 00:25:28;;;;;;;11.93;4.90;;;;;;;1.51;98.60;101312.56;5053458;28;20444;-79
2022/01/07 00:27:54;;;;;;;14.20;5.00;;;;;;;1.51;99.21;101313.41;5052120;28;20037;-78
2022/01/07 00:30:20;;;;;;;13.48;4.15;;;;;;;1.52;99.41;101303.75;5053024;28;20307;-78
2022/01/07 00:32:46;;;;;;;13.23;4.55;;;;;;;1.54;99.69;101312.41;5053044;28;20033;-78
2022/01/07 00:35:14;;;;;;;13.32;4.85;;;;;;;1.54;99.34;101289.66;5052944;28;20456;-78
2022/01/07 00:37:39;;;;;;;13.80;4.72;;;;;;;1.59;99.23;101300.78;5053457;28;20037;-78
2022/01/07 00:40:07;;;;;;;16.63;4.70;;;;;;;1.63;98.67;101285.75;5053405;28;20125;-78
2022/01/07 00:42:32;;;;;;;13.20;5.15;;;;;;;1.66;98.00;101282.16;5052886;28;20082;-79
2022/01/07 00:44:58;;;;;;;17.80;4.47;;;;;;;1.72;97.73;101281.88;5053036;28;20106;-78
2022/01/07 00:47:24;;;;;;;12.68;4.45;;;;;;;1.76;97.34;101278.16;5051567;28;20477;-79
2022/01/07 00:49:50;;;;;;;9.77;4.28;;;;;;;1.81;96.51;101276.19;5052912;28;20025;-79
2022/01/07 00:52:15;;;;;;;16.70;5.10;;;;;;;1.83;96.88;101274.34;5052836;28;20052;-79
2022/01/07 00:54:41;;;;;;;9.07;4.60;;;;;;;1.80;97.14;101261.34;5052830;28;20112;-79
2022/01/07 00:57:06;;;;;;;15.25;5.03;;;;;;;1.80;97.64;101266.59;5052833;28;20079;-79
2022/01/07 00:59:31;;;;;;;14.80;5.47;;;;;;;1.79;97.59;101264.06;5051349;28;20106;-78
2022/01/07 01:01:57;;;;;;;10.65;5.28;;;;;;;1.79;97.80;101248.31;5052777;28;20082;-79
2022/01/07 01:04:22;;;;;;;15.02;6.00;;;;;;;1.81;97.72;101268.31;5052096;28;20372;-79
2022/01/07 01:06:48;;;;;;;11.85;4.95;;;;;;;1.81;97.90;101256.94;5009601;28;1209213;-79
2022/01/07 01:09:13;;;;;;;9.10;4.78;;;;;;;1.80;97.92;101257.91;5053810;28;20041;-80
2022/01/07 01:11:39;;;;;;;13.27;6.50;;;;;;;1.80;98.29;101242.16;5053376;28;20393;-78
2022/01/07 01:14:05;;;;;;;12.05;5.45;;;;;;;1.79;98.66;101243.06;5053260;28;20110;-79
2022/01/07 01:16:31;;;;;;;16.98;5.70;;;;;;;1.82;98.51;101248.16;5053227;28;20151;-79
2022/01/07 01:18:57;;;;;;;11.43;5.43;;;;;;;1.82;98.63;101248.16;5035636;28;20040;-79
2022/01/07 01:21:23;;;;;;;16.75;5.80;;;;;;;1.82;98.73;101249.03;5053609;28;20037;-78
2022/01/07 01:23:50;;;;;;;10.80;5.90;;;;;;;1.80;99.13;101252.66;5052210;28;20040;-78
2022/01/07 01:26:16;;;;;;;10.35;6.00;;;;;;;1.76;99.64;101221.31;5053153;28;20116;-83
2022/01/07 01:28:41;;;;;;;17.85;6.18;;;;;;;1.72;100.00;101235.47;5052219;28;20111;-78
2022/01/07 01:31:07;;;;;;;14.13;6.10;;;;;;;1.72;100.00;101234.66;5053257;28;20040;-78
2022/01/07 01:33:33;;;;;;;14.85;6.20;;;;;;;1.72;100.00;101234.66;5052950;28;20082;-77
2022/01/07 01:35:58;;;;;;;22.20;7.40;;;;;;;1.69;100.00;101219.06;5051808;28;20025;-77
2022/01/07 01:38:27;;;;;;;17.50;7.18;;;;;;;1.67;100.00;101219.13;5052601;28;20401;-77
2022/01/07 01:40:53;;;;;;;17.15;7.57;;;;;;;1.68;100.00;101218.19;5053331;28;20465;-77
2022/01/07 01:43:18;;;;;;;17.73;7.18;;;;;;;1.68;100.00;101214.72;5051555;28;20151;-78
2022/01/07 01:45:44;;;;;;;14.45;7.47;;;;;;;1.68;100.00;101206.84;5051645;28;20082;-77
2022/01/07 01:48:09;;;;;;;16.92;7.40;;;;;;;1.71;100.00;101204.06;5053040;28;20198;-77
2022/01/07 01:50:34;;;;;;;15.27;7.75;;;;;;;1.72;100.00;101193.50;5053060;28;20063;-77
2022/01/07 01:53:00;;;;;;;15.65;7.88;;;;;;;1.74;100.00;101202.13;5052957;28;20469;-78
2022/01/07 01:55:26;;;;;;;13.68;7.70;;;;;;;1.72;100.00;101200.53;5052718;28;20134;-79
2022/01/07 01:57:53;;;;;;;17.67;8.48;;;;;;;1.72;100.00;101201.38;5053068;28;20037;-78
2022/01/07 02:00:21;;;;;;;21.70;8.02;;;;;;;1.73;100.00;101200.47;5053208;28;20060;-86
2022/01/07 02:02:47;;;;;;;20.40;8.35;;;;;;;1.75;100.00;101200.38;5052760;28;20064;-78
2022/01/07 02:05:13;;;;;;;18.10;9.18;;;;;;;1.76;100.00;101178.44;5052806;28;20037;-78
2022/01/07 02:07:40;;;;;;;21.77;8.63;;;;;;;1.77;100.00;101167.88;5052357;28;20045;-78
2022/01/07 02:10:08;;;;;;;13.88;8.40;;;;;;;1.81;100.00;101176.47;5052342;28;20044;-78
2022/01/07 02:12:34;;;;;;;18.95;8.75;;;;;;;1.82;100.00;101174.69;5052651;28;20033;-78
2022/01/07 02:14:59;;;;;;;14.88;8.75;;;;;;;1.82;100.00;101172.94;5053282;28;20029;-78
2022/01/07 02:17:26;;;;;;;15.10;8.57;;;;;;;1.83;100.00;101179.88;5052788;28;20029;-76
2022/01/07 02:19:56;;;;;;;17.05;8.50;;;;;;;1.84;100.00;101168.44;5052925;28;20025;-77
2022/01/07 02:22:23;;;;;;;17.83;9.52;;;;;;;1.84;100.00;101175.47;5053174;28;20120;-83
2022/01/07 02:24:50;;;;;;;19.10;9.27;;;;;;;1.85;100.00;101174.53;5052567;28;20461;-76
2022/01/07 02:27:16;;;;;;;18.38;9.43;;;;;;;1.85;100.00;101164.91;5052548;28;20035;-77
2022/01/07 02:29:44;;;;;;;11.68;8.18;;;;;;;1.85;100.00;101169.28;5052982;28;20053;-76
2022/01/07 02:32:10;;;;;;;14.52;8.25;;;;;;;1.83;100.00;101171.16;5052543;28;20029;-77
2022/01/07 02:34:35;;;;;;;13.73;9.13;;;;;;;1.81;100.00;101170.34;5052183;28;20397;-77
2022/01/07 02:37:01;;;;;;;17.00;8.45;;;;;;;1.82;100.00;101167.69;5055031;28;20033;-77
2022/01/07 02:39:27;;;;;;;16.00;8.88;;;;;;;1.83;100.00;101163.28;5056291;28;20036;-77
2022/01/07 02:41:52;;;;;;;15.48;8.68;;;;;;;1.83;100.00;101150.16;5054856;28;20033;-77
2022/01/07 02:44:18;;;;;;;17.45;9.80;;;;;;;1.83;100.00;101158.03;5055010;28;20086;-76
2022/01/07 02:46:45;;;;;;;19.33;8.88;;;;;;;1.85;100.00;101140.44;5056087;28;20349;-77
2022/01/07 02:49:12;;;;;;;13.13;9.02;;;;;;;1.85;100.00;101146.53;5055795;28;20064;-80
2022/01/07 02:51:38;;;;;;;19.08;9.88;;;;;;;1.87;100.00;101144.69;5056137;28;20029;-77
2022/01/07 02:54:05;;;;;;;17.67;10.82;;;;;;;1.86;100.00;101150.84;5055779;28;20425;-78
2022/01/07 02:56:31;;;;;;;16.98;10.88;;;;;;;1.89;100.00;101132.31;5055628;28;20025;-79
2022/01/07 02:58:56;;;;;;;20.77;11.52;;;;;;;1.93;100.00;101133.88;5054507;28;20059;-78
2022/01/07 03:01:22;;;;;;;20.08;10.70;;;;;;;1.95;100.00;101144.28;5055651;28;20048;-78
2022/01/07 03:03:47;;;;;;;16.58;10.45;;;;;;;1.96;100.00;101140.75;5055534;28;20485;-79
2022/01/07 03:06:13;;;;;;;26.27;12.35;;;;;;;1.98;100.00;101145.94;5055346;28;20037;-78
2022/01/07 03:08:38;;;;;;;29.17;12.45;;;;;;;1.99;100.00;101137.13;5055745;28;20056;-78
2022/01/07 03:11:03;;;;;;;19.98;11.75;;;;;;;1.99;100.00;101132.72;5054258;28;20389;-78
2022/01/07 03:13:29;;;;;;;29.52;13.82;;;;;;;2.00;100.00;101128.31;5055545;28;20063;-84
2022/01/07 03:15:54;;;;;;;20.70;11.18;;;;;;;2.00;100.00;101125.69;5055877;28;20476;-78
2022/01/07 03:18:20;;;;;;;19.85;11.23;;;;;;;2.02;100.00;101116.81;5055438;28;20041;-78
2022/01/07 03:20:45;;;;;;;19.77;12.38;;;;;;;2.03;100.00;101110.66;5055188;28;20115;-78
2022/01/07 03:23:12;;;;;;;21.90;11.57;;;;;;;2.04;100.00;101107.09;5055840;28;20033;-78
2022/01/07 03:25:43;;;;;;;20.73;11.27;;;;;;;2.07;100.00;101093.81;5055182;28;20041;-78
2022/01/07 03:28:10;;;;;;;20.52;10.98;;;;;;;2.09;100.00;101091.97;5055389;28;20089;-78
2022/01/07 03:30:36;;;;;;;16.08;10.63;;;;;;;2.15;100.00;101093.44;5054794;28;20108;-78
2022/01/07 03:33:03;;;;;;;16.27;11.68;;;;;;;2.15;100.00;101085.56;5055315;28;20029;-78
2022/01/07 03:35:29;;;;;;;16.27;10.60;;;;;;;2.15;100.00;101080.31;5053683;28;20072;-77
2022/01/07 03:37:54;;;;;;;20.30;10.73;;;;;;;2.20;100.00;101080.06;5054650;28;20061;-78
2022/01/07 03:40:20;;;;;;;19.33;10.65;;;;;;;2.19;100.00;101071.31;5054988;28;20492;-78
2022/01/07 03:42:47;;;;;;;15.43;10.50;;;;;;;2.18;100.00;101069.66;5053899;28;20091;-78
2022/01/07 03:45:13;;;;;;;21.33;10.15;;;;;;;2.19;100.00;101058.19;5054502;28;20037;-78
2022/01/07 03:47:39;;;;;;;13.55;10.13;;;;;;;2.21;100.00;101058.13;5054548;28;20060;-78
2022/01/07 03:50:09;;;;;;;16.23;10.15;;;;;;;2.20;100.00;101041.53;5054648;28;20082;-78
2022/01/07 03:52:35;;;;;;;19.13;9.82;;;;;;;2.18;100.00;101046.03;5053445;28;20083;-82
2022/01/07 03:55:06;;;;;;;19.25;10.43;;;;;;;2.17;100.00;101025.94;5054611;28;20033;-77
2022/01/07 03:57:31;;;;;;;18.38;10.35;;;;;;;2.19;100.00;101039.81;5054432;28;20033;-77
2022/01/07 03:59:57;;;;;;;19.60;9.70;;;;;;;2.21;100.00;101037.13;5054904;28;20025;-77
2022/01/07 04:02:22;;;;;;;17.42;10.07;;;;;;;2.20;100.00;101038.91;5054551;28;20515;-77
2022/01/07 04:04:48;;;;;;;17.05;10.43;;;;;;;2.22;100.00;101046.69;5054194;28;20107;-78
2022/01/07 04:07:13;;;;;;;18.27;11.18;;;;;;;2.21;100.00;101042.38;5053756;28;20106;-78
2022/01/07 04:09:40;;;;;;;18.25;10.30;;;;;;;2.25;100.00;101046.53;5054479;28;20112;-78
2022/01/07 04:12:05;;;;;;;18.60;11.07;;;;;;;2.25;100.00;101047.38;5055563;28;20033;-78
2022/01/07 04:14:31;;;;;;;15.93;10.25;;;;;;;2.26;100.00;101048.25;5054228;28;20029;-78
2022/01/07 04:16:56;;;;;;;16.52;10.02;;;;;;;2.27;100.00;101034.19;5036983;28;20035;-78
2022/01/07 04:19:22;;;;;;;20.20;11.07;;;;;;;2.29;100.00;101046.28;5054188;28;20113;-78
2022/01/07 04:21:49;;;;;;;17.25;9.82;;;;;;;2.32;100.00;101034.78;5054160;28;20094;-78
2022/01/07 04:24:15;;;;;;;20.67;10.27;;;;;;;2.33;100.00;101039.13;5054063;28;20057;-78
2022/01/07 04:26:41;;;;;;;17.08;10.05;;;;;;;2.33;100.00;101033.88;5053983;28;20116;-78
2022/01/07 04:29:06;;;;;;;22.17;10.30;;;;;;;2.30;100.00;101039.28;5052847;28;20167;-78
2022/01/07 04:31:32;;;;;;;19.40;10.10;;;;;;;2.28;100.00;101046.38;5053613;28;20071;-78
2022/01/07 04:33:57;;;;;;;20.65;9.73;;;;;;;2.28;100.00;101042.00;5053877;28;20488;-78
2022/01/07 04:36:23;;;;;;;16.42;8.45;;;;;;;2.29;100.00;101041.03;5053887;28;20350;-78
2022/01/07 04:38:48;;;;;;;17.70;8.90;;;;;;;2.25;100.00;101036.88;5053632;28;20033;-78
2022/01/07 04:41:14;;;;;;;16.63;9.35;;;;;;;2.29;100.00;101040.19;5052739;28;20063;-78
2022/01/07 04:43:39;;;;;;;12.10;8.90;;;;;;;2.33;100.00;101038.25;5052800;28;20043;-87
2022/01/07 04:46:05;;;;;;;24.85;9.80;;;;;;;2.35;100.00;101032.00;5053654;28;20036;-78
2022/01/07 04:48:31;;;;;;;15.57;9.20;;;;;;;2.38;100.00;101036.25;5052273;28;20033;-78
2022/01/07 04:50:56;;;;;;;18.27;9.50;;;;;;;2.42;100.00;101019.41;5053750;28;20058;-78
2022/01/07 04:53:22;;;;;;;19.17;9.40;;;;;;;2.43;100.00;101036.84;5053437;28;20036;-78
2022/01/07 04:55:48;;;;;;;17.23;9.38;;;;;;;2.43;100.00;101031.59;5053409;28;20043;-78
2022/01/07 04:58:14;;;;;;;19.00;10.07;;;;;;;2.45;100.00;101029.75;5053169;28;20032;-79
2022/01/07 05:00:42;;;;;;;18.27;9.93;;;;;;;2.47;100.00;101031.34;5053513;28;20108;-79
2022/01/07 05:03:09;;;;;;;20.33;11.25;;;;;;;2.52;100.00;101015.31;5053302;28;20041;-80
2022/01/07 05:05:34;;;;;;;18.50;10.38;;;;;;;2.62;100.00;101020.94;5053646;28;20033;-77
2022/01/07 05:08:01;;;;;;;21.23;10.73;;;;;;;2.71;100.00;101024.84;5053278;28;20154;-78
2022/01/07 05:10:27;;;;;;;20.52;10.68;;;;;;;2.77;100.00;101027.13;5052723;28;20121;-77
2022/01/07 05:12:52;;;;;;;18.75;10.95;;;;;;;2.82;100.00;101019.84;5053324;28;20056;-77
2022/01/07 05:15:19;;;;;;;19.63;10.52;;;;;;;2.81;100.00;101019.00;5053029;28;20090;-77
2022/01/07 05:17:45;;;;;;;17.33;10.20;;;;;;;2.85;100.00;101029.34;5052756;28;20493;-78
2022/01/07 05:20:12;;;;;;;20.83;10.43;;;;;;;2.83;100.00;101030.25;5053084;28;20035;-77
2022/01/07 05:22:38;;;;;;;16.10;10.60;;;;;;;2.88;100.00;101035.28;5052894;28;20116;-78
2022/01/07 05:25:06;;;;;;;17.35;10.00;;;;;;;2.95;100.00;101035.78;5052619;28;20037;-78
2022/01/07 05:27:31;;;;;;;27.30;10.52;;;;;;;2.97;100.00;101034.78;5052751;28;20028;-78
2022/01/07 05:29:57;;;;;;;25.25;11.07;;;;;;;2.96;100.00;101034.88;5053173;28;20120;-78
2022/01/07 05:32:22;;;;;;;17.77;10.32;;;;;;;2.92;100.00;101031.53;5053006;28;20458;-78
2022/01/07 05:34:47;;;;;;;16.63;9.68;;;;;;;2.82;100.00;101032.97;5052670;28;20120;-84
2022/01/07 05:37:13;;;;;;;20.35;11.15;;;;;;;2.70;100.00;101026.59;5053120;28;20037;-78
2022/01/07 05:39:38;;;;;;;19.48;11.32;;;;;;;2.65;100.00;101026.03;5053286;28;20448;-78
2022/01/07 05:42:05;;;;;;;27.98;12.25;;;;;;;2.59;100.00;101029.00;5053051;28;20025;-78
2022/01/07 05:44:30;;;;;;;26.50;12.57;;;;;;;2.56;100.00;101031.78;5052811;28;20037;-77
2022/01/07 05:46:56;;;;;;;18.73;11.05;;;;;;;2.53;100.00;101029.31;5053123;28;20120;-78
2022/01/07 05:49:21;;;;;;;21.70;11.95;;;;;;;2.50;100.00;101035.59;5052626;28;20440;-78
2022/01/07 05:51:47;;;;;;;24.30;11.85;;;;;;;2.52;100.00;101040.75;5034552;28;20039;-78
2022/01/07 05:54:12;;;;;;;28.48;12.52;;;;;;;2.59;100.00;101035.09;5053028;28;20025;-78
2022/01/07 05:56:38;;;;;;;20.73;11.90;;;;;;;2.63;100.00;101041.03;5053339;28;20047;-78
2022/01/07 05:59:04;;;;;;;27.02;12.55;;;;;;;2.68;100.00;101048.66;5052688;28;20052;-78
2022/01/07 06:01:29;;;;;;;24.25;12.82;;;;;;;2.71;100.00;101049.34;5053417;28;20032;-78
2022/01/07 06:03:55;;;;;;;20.10;12.57;;;;;;;2.73;100.00;101044.00;5052593;28;20385;-80
2022/01/07 06:06:20;;;;;;;24.75;13.40;;;;;;;2.79;100.00;101046.28;5052444;28;20033;-78
2022/01/07 06:08:46;;;;;;;24.08;14.00;;;;;;;2.83;100.00;101050.44;5051667;28;20108;-78
2022/01/07 06:11:11;;;;;;;23.38;13.35;;;;;;;2.88;100.00;101043.19;5056036;28;20449;-78
2022/01/07 06:13:37;;;;;;;24.58;13.52;;;;;;;2.93;100.00;101045.56;5056400;28;20384;-78
2022/01/07 06:16:03;;;;;;;21.17;13.00;;;;;;;2.93;100.00;101045.56;5056867;28;20116;-78
2022/01/07 06:18:29;;;;;;;22.52;12.95;;;;;;;2.94;100.00;101034.94;5056477;28;20492;-78
2022/01/07 06:20:54;;;;;;;21.67;13.70;;;;;;;2.91;100.00;101040.38;5056384;28;20037;-78
2022/01/07 06:23:20;;;;;;;23.90;13.25;;;;;;;2.93;100.00;101035.88;5056672;28;20465;-78
2022/01/07 06:25:49;;;;;;;27.25;14.20;;;;;;;2.86;100.00;101029.25;5056092;28;20028;-78
2022/01/07 06:28:16;;;;;;;23.88;13.40;;;;;;;2.79;100.00;101020.00;5060459;28;20025;-77
2022/01/07 06:30:41;;;;;;;31.17;14.02;;;;;;;2.74;100.00;101024.69;5060075;28;20041;-78
2022/01/07 06:33:06;;;;;;;35.15;14.40;;;;;;;2.72;100.00;101035.28;5055805;28;20087;-76
2022/01/07 06:35:32;;;;;;;30.83;14.48;;;;;;;2.71;100.00;101024.84;5055644;28;20025;-76
2022/01/07 06:37:57;;;;;;;21.10;13.20;;;;;;;2.67;100.00;101032.03;5054659;28;20033;-77
2022/01/07 06:40:23;;;;;;;28.73;13.70;;;;;;;2.66;100.00;101035.63;5055659;28;20108;-76
2022/01/07 06:42:48;;;;;;;31.95;14.55;;;;;;;2.68;100.00;101031.13;5056431;28;20064;-76
2022/01/07 06:45:13;;;;;;;26.52;13.57;;;;;;;2.72;100.00;101034.44;5055668;28;20112;-78
2022/01/07 06:47:39;;;;;;;25.33;12.88;;;;;;;2.75;100.00;101036.91;5055521;28;20068;-79
2022/01/07 06:50:05;;;;;;;28.27;13.75;;;;;;;2.75;100.00;101036.91;5054611;28;20037;-78
2022/01/07 06:52:31;;;;;;;23.08;13.48;;;;;;;2.72;100.00;101035.28;5056101;28;20053;-78
2022/01/07 06:54:57;;;;;;;25.85;13.45;;;;;;;2.75;100.00;101035.09;5056075;28;20025;-85
2022/01/07 06:57:22;;;;;;;21.33;12.68;;;;;;;2.77;100.00;101030.59;5055602;28;20116;-77
2022/01/07 06:59:48;;;;;;;22.23;12.40;;;;;;;2.77;100.00;101033.22;5055550;28;20050;-79
2022/01/07 07:02:13;;;;;;;19.95;12.93;;;;;;;2.80;100.00;101032.22;5055458;28;20065;-80
2022/01/07 07:04:39;;;;;;;18.80;11.63;;;;;;;2.79;100.00;101022.63;5055566;28;20025;-76
2022/01/07 07:07:05;;;;;;;30.30;13.05;;;;;;;2.76;100.00;101020.19;5055187;28;20179;-77
2022/01/07 07:09:30;;;;;;;18.85;11.15;;;;;;;2.73;100.00;101021.22;5054585;28;20045;-76
2022/01/07 07:11:56;;;;;;;25.75;10.75;;;;;;;2.75;100.00;101029.00;5055459;28;20458;-78
2022/01/07 07:14:21;;;;;;;19.80;10.25;;;;;;;2.73;100.00;101023.84;5055922;28;20033;-79
2022/01/07 07:16:46;;;;;;;19.27;9.95;;;;;;;2.73;100.00;101022.97;5055421;28;20160;-80
2022/01/07 07:19:12;;;;;;;21.00;10.43;;;;;;;2.75;100.00;101018.50;5055208;28;20025;-79
2022/01/07 07:21:38;;;;;;;25.17;9.85;;;;;;;2.75;100.00;101016.72;5055195;28;20381;-78
2022/01/07 07:24:04;;;;;;;23.33;9.75;;;;;;;2.75;100.00;101018.50;5055244;28;20445;-75
2022/01/07 07:26:29;;;;;;;25.08;10.13;;;;;;;2.77;100.00;101021.88;5055062;28;20474;-76
2022/01/07 07:28:55;;;;;;;22.73;8.80;;;;;;;2.75;100.00;101023.75;5055118;28;20113;-78
2022/01/07 07:31:21;;;;;;;21.02;7.97;;;;;;;2.74;100.00;101014.16;5055140;28;20061;-78
2022/01/07 07:36:32;;;;;;;18.85;8.70;;;;;;;2.55;100.00;101020.41;5054876;28;20048;-77
2022/01/07 07:39:01;;;;;;;20.17;8.30;;;;;;;2.46;100.00;101024.41;5054975;28;20025;-78
2022/01/07 07:41:26;;;;;;;19.38;8.13;;;;;;;2.39;100.00;101030.91;5055667;28;20039;-76
2022/01/07 07:43:52;;;;;;;21.75;9.10;;;;;;;2.33;100.00;101027.75;5054814;28;20124;-77
2022/01/07 07:46:19;;;;;;;19.98;8.27;;;;;;;2.27;100.00;101031.56;5054584;28;20124;-76
2022/01/07 07:48:46;;;;;;;24.25;9.27;;;;;;;2.22;100.00;101026.53;5055441;28;20045;-78
2022/01/07 07:51:12;;;;;;;27.83;8.02;;;;;;;2.19;100.00;101034.56;5054578;28;20389;-79
2022/01/07 07:53:38;;;;;;;18.30;7.80;;;;;;;2.16;100.00;101042.59;5055411;28;20045;-74
2022/01/07 07:56:04;;;;;;;25.00;7.68;;;;;;;2.13;100.00;101036.69;5055014;28;20033;-74
2022/01/07 07:58:29;;;;;;;22.45;7.18;;;;;;;2.15;100.00;101034.81;5054376;28;20048;-74
2022/01/07 08:00:55;;;;;;;20.25;7.88;;;;;;;2.12;100.00;101035.84;5054391;28;20025;-78
2022/01/07 08:03:22;;;;;;;25.73;8.30;;;;;;;2.10;100.00;101035.91;5053118;28;20041;-76
2022/01/07 08:05:48;;;;;;;19.42;7.07;;;;;;;2.13;100.00;101036.69;5054880;28;20033;-77
2022/01/07 08:08:13;;;;;;;22.48;7.82;;;;;;;2.18;100.00;101039.91;5054848;28;20456;-77
2022/01/07 08:10:46;;;;;;;23.85;6.93;;;;;;;2.20;100.00;101038.06;5052584;28;20036;-78
2022/01/07 08:18:23;;;;;;;16.70;6.63;;;;;;;2.49;100.00;101038.28;5054070;28;20044;-76
2022/01/07 08:20:52;;;;;;;21.17;6.80;;;;;;;2.56;100.00;101035.25;5053826;28;20481;-76
2022/01/07 08:23:18;;;;;;;21.13;6.45;;;;;;;2.57;100.00;101034.31;5054103;28;20098;-77
2022/01/07 08:25:45;;;;;;;20.70;6.07;;;;;;;2.55;100.00;101032.72;5053675;28;20076;-79
2022/01/07 08:28:12;;;;;;;15.95;6.95;;;;;;;2.51;100.00;101029.41;5054198;28;20059;-78
2022/01/07 08:30:47;;;;;;;15.18;6.10;;;;;;;2.49;100.00;101035.66;5054051;28;20052;-77
2022/01/07 08:35:57;;;;;;;13.40;6.20;;;;;;;2.47;100.00;101043.63;5054391;28;20636;-78
2022/01/07 08:38:22;;;;;;;17.13;6.35;;;;;;;2.46;100.00;101034.03;5053836;28;20119;-79
2022/01/07 08:40:48;;;;;;;22.50;6.88;;;;;;;2.52;100.00;101035.50;5054093;28;20436;-78
2022/01/07 08:43:13;;;;;;;26.27;7.03;;;;;;;2.57;100.00;101028.22;5053719;28;20068;-78
2022/01/07 08:45:42;;;;;;;25.63;7.20;;;;;;;2.65;100.00;101026.03;5053329;28;20063;-78
2022/01/07 08:48:07;;;;;;;12.50;6.30;;;;;;;2.79;100.00;101020.88;5053927;28;20112;-78
2022/01/07 08:50:33;;;;;;;21.88;6.25;;;;;;;2.96;100.00;101026.97;5053612;28;20084;-75
2022/01/07 08:53:01;;;;;;;18.17;6.18;;;;;;;3.13;100.00;101029.50;5053859;28;20063;-75
2022/01/07 08:55:26;;;;;;;29.85;5.70;;;;;;;3.29;100.00;101026.00;5053301;28;20033;-75
2022/01/07 08:57:52;;;;;;;17.98;5.43;;;;;;;3.34;100.00;101034.47;5053210;28;20067;-75
2022/01/07 09:00:17;;;;;;;12.88;5.40;;;;;;;3.36;100.00;101032.63;5052348;28;20039;-79
2022/01/07 09:02:43;;;;;;;17.13;5.50;;;;;;;3.29;100.00;101026.84;5054135;28;20025;-80
2022/01/07 09:05:08;;;;;;;17.40;6.53;;;;;;;3.27;100.00;101039.25;5053514;28;20037;-76
2022/01/07 09:07:34;;;;;;;18.98;5.93;;;;;;;3.33;100.00;101035.44;5053279;28;20041;-80
2022/01/07 09:09:59;;;;;;;22.65;7.38;;;;;;;3.51;100.00;101033.53;5053384;28;20029;-79
2022/01/07 09:12:25;;;;;;;15.27;6.05;;;;;;;3.75;100.00;101031.25;5053137;28;20071;-78
2022/01/07 09:14:50;;;;;;;20.20;6.03;;;;;;;3.88;100.00;101031.34;5053124;28;20098;-75
2022/01/07 09:17:16;;;;;;;19.60;6.35;;;;;;;4.08;100.00;101016.16;5052786;28;20066;-80
2022/01/07 09:19:41;;;;;;;15.93;5.50;;;;;;;4.14;100.00;101019.25;5051900;28;20035;-77
2022/01/07 09:22:06;;;;;;;18.52;6.30;;;;;;;4.22;100.00;101035.47;5051822;28;20438;-76
2022/01/07 09:24:32;;;;;;;17.98;5.47;;;;;;;4.35;100.00;101043.44;5053314;28;20059;-72
2022/01/07 09:26:59;;;;;;;20.50;6.05;;;;;;;4.34;100.00;101044.38;5052637;28;20030;-74
2022/01/07 09:29:26;;;;;;;17.80;5.00;;;;;;;4.33;100.00;101036.56;5053115;28;20033;-74
2022/01/07 09:31:51;;;;;;;17.05;5.18;;;;;;;4.22;99.73;101031.97;5052568;28;20065;-78
2022/01/07 09:34:17;;;;;;;19.58;5.05;;;;;;;4.11;99.40;101031.78;5052438;28;20120;-79
2022/01/07 09:36:42;;;;;;;13.07;4.57;;;;;;;4.10;99.71;101035.34;5052462;28;20033;-74
2022/01/07 09:39:08;;;;;;;16.63;5.60;;;;;;;4.17;99.61;101034.88;5053539;28;20036;-74
2022/01/07 09:41:33;;;;;;;12.82;4.70;;;;;;;4.17;99.86;101029.59;5052679;28;20040;-75
2022/01/07 09:44:01;;;;;;;20.52;5.57;;;;;;;4.29;99.30;101029.81;5053261;28;20157;-77
2022/01/07 09:46:26;;;;;;;17.90;5.18;;;;;;;4.28;98.04;101038.66;5056472;28;20428;-76
2022/01/07 09:48:52;;;;;;;10.73;5.15;;;;;;;4.20;97.01;101037.31;5056625;28;20033;-74
2022/01/07 09:51:17;;;;;;;20.83;5.03;;;;;;;4.13;97.57;101040.41;5056414;28;20032;-80
2022/01/07 09:53:43;;;;;;;14.27;4.93;;;;;;;4.05;97.24;101044.34;5055884;28;20082;-73
2022/01/07 09:56:08;;;;;;;13.32;4.63;;;;;;;3.98;97.55;101035.13;5055688;28;20039;-75
2022/01/07 09:58:34;;;;;;;18.58;5.00;;;;;;;3.86;98.21;101033.22;5056573;28;20127;-74
2022/01/07 10:01:06;;;;;;;22.88;6.15;;;;;;;3.87;98.81;101037.56;5057195;28;20048;-73
2022/01/07 10:03:40;;;;;;;13.65;5.28;;;;;;;3.93;99.04;101039.81;5056213;28;20392;-75
2022/01/07 10:06:23;;;;;;;15.73;4.70;;;;;;;4.07;99.62;101046.91;5056388;28;20033;-77
2022/01/07 10:09:11;;;;;;;20.20;5.18;;;;;;;4.21;99.57;101035.53;5054846;28;20041;-76
2022/01/07 10:11:37;;;;;;;20.85;5.32;;;;;;;4.20;98.94;101042.59;5056478;28;20048;-77
2022/01/07 10:14:15;;;;;;;17.17;4.25;;;;;;;4.15;97.60;101035.91;5056297;28;20029;-76
2022/01/07 10:17:07;;;;;;;14.27;3.78;;;;;;;3.96;96.68;101033.53;5056388;28;20060;-75
2022/01/07 10:19:43;;;;;;;9.75;2.83;;;;;;;3.82;94.85;101036.97;5054080;28;20063;-74
2022/01/07 10:22:14;;;;;;;12.20;2.55;;;;;;;3.88;92.44;101040.09;5056921;28;20054;-75
2022/01/07 10:24:58;;;;;;;16.38;3.20;;;;;;;4.01;92.61;101039.38;5056100;28;20132;-75
2022/01/07 10:27:26;;;;;;;10.23;3.20;;;;;;;4.11;93.54;101051.03;5056038;28;20465;-75
2022/01/07 10:29:51;;;;;;;15.55;3.67;;;;;;;4.22;93.75;101039.84;5056298;28;20362;-77
2022/01/07 10:32:21;;;;;;;11.65;4.05;;;;;;;4.31;94.43;101036.66;5056215;28;20032;-78
2022/01/07 10:35:05;;;;;;;18.15;4.90;;;;;;;4.49;95.63;101047.84;5055936;28;20025;-76
2022/01/07 10:37:30;;;;;;;18.70;4.85;;;;;;;4.52;94.87;101041.56;5056222;28;20025;-77
2022/01/07 10:39:56;;;;;;;11.48;3.97;;;;;;;4.47;93.74;101052.38;5056132;28;20111;-76
2022/01/07 10:42:22;;;;;;;18.52;4.38;;;;;;;4.56;94.35;101038.63;5056085;28;20032;-76
2022/01/07 10:45:02;;;;;;;14.35;4.22;;;;;;;4.85;95.07;101040.38;5056487;28;20048;-75
2022/01/07 10:47:29;;;;;;;11.65;3.08;;;;;;;5.04;87.44;101040.06;5056220;28;20029;-75
2022/01/07 10:50:12;;;;;;;16.30;3.33;;;;;;;5.07;86.34;101032.78;5055716;28;20059;-77
2022/01/07 10:52:38;;;;;;;13.60;1.70;;;;;;;5.00;81.93;101036.78;5055682;28;20074;-75
2022/01/07 10:55:15;;;;;;;21.92;3.60;;;;;;;4.96;81.70;101032.66;5055165;28;20474;-72
2022/01/07 10:57:43;;;;;;;14.48;2.10;;;;;;;4.97;81.72;101031.72;5055940;28;20056;-77
2022/01/07 11:00:13;;;;;;;13.23;2.03;;;;;;;5.01;82.41;101025.28;5054606;28;20029;-76
2022/01/07 11:02:39;;;;;;;14.05;2.60;;;;;;;5.05;80.85;101024.16;5054443;28;20453;-77
2022/01/07 11:05:05;;;;;;;12.90;2.03;;;;;;;5.08;79.45;101029.22;5055536;28;20469;-75
2022/01/07 11:07:31;;;;;;;9.57;2.05;;;;;;;5.15;79.33;101027.03;5055284;28;20164;-77
2022/01/07 11:09:57;;;;;;;18.42;2.17;;;;;;;5.37;77.94;101025.63;5055782;28;20044;-75
2022/01/07 11:12:25;;;;;;;15.45;2.20;;;;;;;5.64;79.44;101023.81;5053997;28;20408;-76
2022/01/07 11:14:51;;;;;;;15.20;2.08;;;;;;;5.85;73.96;101022.47;5055283;28;20106;-76
2022/01/07 11:17:21;;;;;;;13.75;1.88;;;;;;;5.77;73.93;101023.81;5055712;28;20068;-79
2022/01/07 11:19:52;;;;;;;11.43;1.90;;;;;;;5.70;70.50;101019.06;5054944;28;20029;-80
2022/01/07 11:22:19;;;;;;;;;;;;;;;5.70;72.25;101021.69;5055744;28;20043;-76
2022/01/07 11:24:46;;;;;;;11.85;2.00;;;;;;;5.78;72.40;101025.53;5055024;28;19913;-81